sensor_id;sensor_type;location;lat;lon;timestamp;temperature;humidity
19665;DHT22;9980;51.020;7.772;2022-10-28T00:02:32;15.80;99.90
19665;DHT22;9980;51.020;7.772;2022-10-28T00:05:12;15.80;99.90
19665;DHT22;9980;51.020;7.772;2022-10-28T00:07:59;15.80;99.90
19665;DHT22;9980;51.020;7.772;2022-10-28T00:10:39;15.80;99.90
19665;DHT22;9980;51.020;7.772;2022-10-28T00:13:26;15.80;99.90
19665;DHT22;9980;51.020;7.772;2022-10-28T00:16:15;15.80;99.90
19665;DHT22;9980;51.020;7.772;2022-10-28T00:19:11;15.80;99.90
19665;DHT22;9980;51.020;7.772;2022-10-28T00:21:45;15.80;99.90
19665;DHT22;9980;51.020;7.772;2022-10-28T00:24:39;15.80;99.90
19665;DHT22;9980;51.020;7.772;2022-10-28T00:27:12;15.80;99.90
19665;DHT22;9980;51.020;7.772;2022-10-28T00:30:06;15.70;99.90
19665;DHT22;9980;51.020;7.772;2022-10-28T00:32:40;15.70;99.90
19665;DHT22;9980;51.020;7.772;2022-10-28T00:35:34;15.80;99.90
19665;DHT22;9980;51.020;7.772;2022-10-28T00:38:07;15.70;99.90
19665;DHT22;9980;51.020;7.772;2022-10-28T00:41:01;15.70;99.90
19665;DHT22;9980;51.020;7.772;2022-10-28T00:46:42;15.80;99.90
19665;DHT22;9980;51.020;7.772;2022-10-28T00:49:30;15.80;99.90
19665;DHT22;9980;51.020;7.772;2022-10-28T00:52:25;15.80;99.90
19665;DHT22;9980;51.020;7.772;2022-10-28T00:55:09;15.80;99.90
19665;DHT22;9980;51.020;7.772;2022-10-28T00:57:58;15.80;99.90
19665;DHT22;9980;51.020;7.772;2022-10-28T01:00:41;15.80;99.90
19665;DHT22;9980;51.020;7.772;2022-10-28T01:03:29;15.80;99.90
19665;DHT22;9980;51.020;7.772;2022-10-28T01:06:09;15.80;99.90
19665;DHT22;9980;51.020;7.772;2022-10-28T01:08:49;15.90;99.90
19665;DHT22;9980;51.020;7.772;2022-10-28T01:12:14;15.90;99.90
19665;DHT22;9980;51.020;7.772;2022-10-28T01:15:29;15.90;99.90
19665;DHT22;9980;51.020;7.772;2022-10-28T01:18:59;15.90;99.90
19665;DHT22;9980;51.020;7.772;2022-10-28T01:25:20;16.00;99.90
19665;DHT22;9980;51.020;7.772;2022-10-28T01:32:23;16.00;99.90
19665;DHT22;9980;51.020;7.772;2022-10-28T01:39:23;16.00;99.90
19665;DHT22;9980;51.020;7.772;2022-10-28T01:42:12;16.00;99.90
19665;DHT22;9980;51.020;7.772;2022-10-28T01:45:27;16.10;99.90
19665;DHT22;9980;51.020;7.772;2022-10-28T01:48:13;16.10;99.90
19665;DHT22;9980;51.020;7.772;2022-10-28T01:51:29;16.10;99.90
19665;DHT22;9980;51.020;7.772;2022-10-28T01:54:16;16.10;99.90
19665;DHT22;9980;51.020;7.772;2022-10-28T01:57:09;16.10;99.90
19665;DHT22;9980;51.020;7.772;2022-10-28T01:59:52;16.10;99.90
19665;DHT22;9980;51.020;7.772;2022-10-28T02:02:47;16.10;99.90
19665;DHT22;9980;51.020;7.772;2022-10-28T02:06:06;16.20;99.90
19665;DHT22;9980;51.020;7.772;2022-10-28T02:09:31;16.20;99.90
19665;DHT22;9980;51.020;7.772;2022-10-28T02:12:36;16.20;99.90
19665;DHT22;9980;51.020;7.772;2022-10-28T02:15:51;16.20;99.90
19665;DHT22;9980;51.020;7.772;2022-10-28T02:18:50;16.20;99.90
19665;DHT22;9980;51.020;7.772;2022-10-28T02:22:07;16.20;99.90
19665;DHT22;9980;51.020;7.772;2022-10-28T02:28:21;16.20;99.90
19665;DHT22;9980;51.020;7.772;2022-10-28T02:31:23;16.20;99.90
19665;DHT22;9980;51.020;7.772;2022-10-28T02:34:32;16.20;99.90
19665;DHT22;9980;51.020;7.772;2022-10-28T02:37:23;16.20;99.90
19665;DHT22;9980;51.020;7.772;2022-10-28T02:40:24;16.20;99.90
19665;DHT22;9980;51.020;7.772;2022-10-28T02:43:03;16.30;99.90
19665;DHT22;9980;51.020;7.772;2022-10-28T02:46:01;16.30;99.90
19665;DHT22;9980;51.020;7.772;2022-10-28T02:48:58;16.30;99.90
19665;DHT22;9980;51.020;7.772;2022-10-28T02:52:01;16.30;99.90
19665;DHT22;9980;51.020;7.772;2022-10-28T02:54:49;16.30;99.90
19665;DHT22;9980;51.020;7.772;2022-10-28T02:57:44;16.30;99.90
19665;DHT22;9980;51.020;7.772;2022-10-28T03:00:29;16.30;99.90
19665;DHT22;9980;51.020;7.772;2022-10-28T03:03:16;16.30;99.90
19665;DHT22;9980;51.020;7.772;2022-10-28T03:05:56;16.40;99.90
19665;DHT22;9980;51.020;7.772;2022-10-28T03:08:50;16.40;99.90
19665;DHT22;9980;51.020;7.772;2022-10-28T03:11:23;16.40;99.90
19665;DHT22;9980;51.020;7.772;2022-10-28T03:14:17;16.40;99.90
19665;DHT22;9980;51.020;7.772;2022-10-28T03:16:50;16.40;99.90
19665;DHT22;9980;51.020;7.772;2022-10-28T03:19:44;16.40;99.90
19665;DHT22;9980;51.020;7.772;2022-10-28T03:22:17;16.40;99.90
19665;DHT22;9980;51.020;7.772;2022-10-28T03:25:11;16.40;99.90
19665;DHT22;9980;51.020;7.772;2022-10-28T03:27:44;16.40;99.90
19665;DHT22;9980;51.020;7.772;2022-10-28T03:30:38;16.40;99.90
19665;DHT22;9980;51.020;7.772;2022-10-28T03:33:11;16.40;99.90
19665;DHT22;9980;51.020;7.772;2022-10-28T03:36:05;16.40;99.90
19665;DHT22;9980;51.020;7.772;2022-10-28T03:38:46;16.40;99.90
19665;DHT22;9980;51.020;7.772;2022-10-28T03:41:33;16.50;99.90
19665;DHT22;9980;51.020;7.772;2022-10-28T03:44:13;16.50;99.90
19665;DHT22;9980;51.020;7.772;2022-10-28T03:47:07;16.50;99.90
19665;DHT22;9980;51.020;7.772;2022-10-28T03:49:47;16.50;99.90
19665;DHT22;9980;51.020;7.772;2022-10-28T03:52:34;16.50;99.90
19665;DHT22;9980;51.020;7.772;2022-10-28T03:55:28;16.50;99.90
19665;DHT22;9980;51.020;7.772;2022-10-28T03:58:01;16.50;99.90
19665;DHT22;9980;51.020;7.772;2022-10-28T04:00:56;16.50;99.90
19665;DHT22;9980;51.020;7.772;2022-10-28T04:03:30;16.50;99.90
19665;DHT22;9980;51.020;7.772;2022-10-28T04:06:24;16.50;99.90
19665;DHT22;9980;51.020;7.772;2022-10-28T04:09:04;16.40;99.90
19665;DHT22;9980;51.020;7.772;2022-10-28T04:11:51;16.40;99.90
19665;DHT22;9980;51.020;7.772;2022-10-28T04:14:31;16.40;99.90
19665;DHT22;9980;51.020;7.772;2022-10-28T04:17:18;16.40;99.90
19665;DHT22;9980;51.020;7.772;2022-10-28T04:19:58;16.40;99.90
19665;DHT22;9980;51.020;7.772;2022-10-28T04:22:45;16.30;99.90
19665;DHT22;9980;51.020;7.772;2022-10-28T04:25:29;16.30;99.90
19665;DHT22;9980;51.020;7.772;2022-10-28T04:28:16;16.20;99.90
19665;DHT22;9980;51.020;7.772;2022-10-28T04:30:56;16.20;99.90
19665;DHT22;9980;51.020;7.772;2022-10-28T04:33:50;16.10;99.90
19665;DHT22;9980;51.020;7.772;2022-10-28T04:36:23;16.10;99.90
19665;DHT22;9980;51.020;7.772;2022-10-28T04:39:17;16.10;99.90
19665;DHT22;9980;51.020;7.772;2022-10-28T04:41:54;16.00;99.90
19665;DHT22;9980;51.020;7.772;2022-10-28T04:44:48;16.00;99.90
19665;DHT22;9980;51.020;7.772;2022-10-28T04:47:24;15.90;99.90
19665;DHT22;9980;51.020;7.772;2022-10-28T04:50:18;15.90;99.90
19665;DHT22;9980;51.020;7.772;2022-10-28T04:52:58;15.80;99.90
19665;DHT22;9980;51.020;7.772;2022-10-28T04:55:46;15.80;99.90
19665;DHT22;9980;51.020;7.772;2022-10-28T04:58:26;15.70;99.90
19665;DHT22;9980;51.020;7.772;2022-10-28T05:01:13;15.70;99.90
19665;DHT22;9980;51.020;7.772;2022-10-28T05:03:53;15.60;99.90
19665;DHT22;9980;51.020;7.772;2022-10-28T05:06:40;15.60;99.90
19665;DHT22;9980;51.020;7.772;2022-10-28T05:09:20;15.50;99.90
19665;DHT22;9980;51.020;7.772;2022-10-28T05:12:14;15.50;99.90
19665;DHT22;9980;51.020;7.772;2022-10-28T05:14:54;15.50;99.90
19665;DHT22;9980;51.020;7.772;2022-10-28T05:17:45;15.40;99.90
19665;DHT22;9980;51.020;7.772;2022-10-28T05:20:26;15.40;99.90
19665;DHT22;9980;51.020;7.772;2022-10-28T05:23:13;15.30;99.90
19665;DHT22;9980;51.020;7.772;2022-10-28T05:25:53;15.30;99.90
19665;DHT22;9980;51.020;7.772;2022-10-28T05:28:50;15.30;99.90
19665;DHT22;9980;51.020;7.772;2022-10-28T05:31:23;15.20;99.90
19665;DHT22;9980;51.020;7.772;2022-10-28T05:34:25;15.20;99.90
19665;DHT22;9980;51.020;7.772;2022-10-28T05:37:19;15.20;99.90
19665;DHT22;9980;51.020;7.772;2022-10-28T05:39:59;15.20;99.90
19665;DHT22;9980;51.020;7.772;2022-10-28T05:42:46;15.20;99.90
19665;DHT22;9980;51.020;7.772;2022-10-28T05:45:26;15.10;99.90
19665;DHT22;9980;51.020;7.772;2022-10-28T05:48:14;15.10;99.90
19665;DHT22;9980;51.020;7.772;2022-10-28T05:50:54;15.10;99.90
19665;DHT22;9980;51.020;7.772;2022-10-28T05:53:48;15.10;99.90
19665;DHT22;9980;51.020;7.772;2022-10-28T05:56:30;15.10;99.90
19665;DHT22;9980;51.020;7.772;2022-10-28T05:59:24;15.00;99.90
19665;DHT22;9980;51.020;7.772;2022-10-28T06:01:57;15.00;99.90
19665;DHT22;9980;51.020;7.772;2022-10-28T06:04:51;14.90;99.90
19665;DHT22;9980;51.020;7.772;2022-10-28T06:07:24;14.90;99.90
19665;DHT22;9980;51.020;7.772;2022-10-28T06:10:18;14.90;99.90
19665;DHT22;9980;51.020;7.772;2022-10-28T06:12:54;14.90;99.90
19665;DHT22;9980;51.020;7.772;2022-10-28T06:15:53;14.90;99.90
19665;DHT22;9980;51.020;7.772;2022-10-28T06:18:34;14.80;99.90
19665;DHT22;9980;51.020;7.772;2022-10-28T06:21:21;14.80;99.90
19665;DHT22;9980;51.020;7.772;2022-10-28T06:24:01;14.80;99.90
19665;DHT22;9980;51.020;7.772;2022-10-28T06:26:53;14.80;99.90
19665;DHT22;9980;51.020;7.772;2022-10-28T06:29:33;14.70;99.90
19665;DHT22;9980;51.020;7.772;2022-10-28T06:32:28;14.70;99.90
19665;DHT22;9980;51.020;7.772;2022-10-28T06:35:08;14.70;99.90
19665;DHT22;9980;51.020;7.772;2022-10-28T06:38:02;14.70;99.90
19665;DHT22;9980;51.020;7.772;2022-10-28T06:40:43;14.70;99.90
19665;DHT22;9980;51.020;7.772;2022-10-28T06:43:26;14.70;99.90
19665;DHT22;9980;51.020;7.772;2022-10-28T06:46:14;14.70;99.90
19665;DHT22;9980;51.020;7.772;2022-10-28T06:48:54;14.70;99.90
19665;DHT22;9980;51.020;7.772;2022-10-28T06:51:42;14.70;99.90
19665;DHT22;9980;51.020;7.772;2022-10-28T06:54:22;14.70;99.90
19665;DHT22;9980;51.020;7.772;2022-10-28T06:57:09;14.70;99.90
19665;DHT22;9980;51.020;7.772;2022-10-28T06:59:50;14.70;99.90
19665;DHT22;9980;51.020;7.772;2022-10-28T07:02:37;14.80;99.90
19665;DHT22;9980;51.020;7.772;2022-10-28T07:05:17;14.80;99.90
19665;DHT22;9980;51.020;7.772;2022-10-28T07:08:11;14.80;99.90
19665;DHT22;9980;51.020;7.772;2022-10-28T07:10:54;14.80;99.90
19665;DHT22;9980;51.020;7.772;2022-10-28T07:13:49;14.90;99.90
19665;DHT22;9980;51.020;7.772;2022-10-28T07:16:23;14.80;99.90
19665;DHT22;9980;51.020;7.772;2022-10-28T07:19:17;14.90;99.90
19665;DHT22;9980;51.020;7.772;2022-10-28T07:21:54;14.80;99.90
19665;DHT22;9980;51.020;7.772;2022-10-28T07:24:48;14.90;99.90
19665;DHT22;9980;51.020;7.772;2022-10-28T07:27:21;14.90;99.90
19665;DHT22;9980;51.020;7.772;2022-10-28T07:30:15;14.90;99.90
19665;DHT22;9980;51.020;7.772;2022-10-28T07:32:48;15.00;99.90
19665;DHT22;9980;51.020;7.772;2022-10-28T07:35:44;15.00;99.90
19665;DHT22;9980;51.020;7.772;2022-10-28T07:38:18;15.00;99.90
19665;DHT22;9980;51.020;7.772;2022-10-28T07:41:12;15.10;99.90
19665;DHT22;9980;51.020;7.772;2022-10-28T07:43:52;15.10;99.90
19665;DHT22;9980;51.020;7.772;2022-10-28T07:46:39;15.20;99.90
19665;DHT22;9980;51.020;7.772;2022-10-28T07:49:19;15.30;99.90
19665;DHT22;9980;51.020;7.772;2022-10-28T07:52:06;15.30;99.90
19665;DHT22;9980;51.020;7.772;2022-10-28T07:54:46;15.40;99.90
19665;DHT22;9980;51.020;7.772;2022-10-28T07:57:33;15.50;99.90
19665;DHT22;9980;51.020;7.772;2022-10-28T08:00:14;15.60;99.90
19665;DHT22;9980;51.020;7.772;2022-10-28T08:03:08;15.70;99.90
19665;DHT22;9980;51.020;7.772;2022-10-28T08:05:41;15.80;99.90
19665;DHT22;9980;51.020;7.772;2022-10-28T08:08:38;15.80;99.90
19665;DHT22;9980;51.020;7.772;2022-10-28T08:11:20;15.90;99.90
19665;DHT22;9980;51.020;7.772;2022-10-28T08:14:15;16.00;99.90
19665;DHT22;9980;51.020;7.772;2022-10-28T08:16:48;16.10;99.90
19665;DHT22;9980;51.020;7.772;2022-10-28T08:19:42;16.20;99.90
19665;DHT22;9980;51.020;7.772;2022-10-28T08:22:15;16.20;99.90
19665;DHT22;9980;51.020;7.772;2022-10-28T08:25:09;16.30;99.90
19665;DHT22;9980;51.020;7.772;2022-10-28T08:27:49;16.40;99.90
19665;DHT22;9980;51.020;7.772;2022-10-28T08:30:36;16.60;99.90
19665;DHT22;9980;51.020;7.772;2022-10-28T08:33:32;16.60;99.90
19665;DHT22;9980;51.020;7.772;2022-10-28T08:36:26;16.80;99.90
19665;DHT22;9980;51.020;7.772;2022-10-28T08:39:07;16.90;99.90
19665;DHT22;9980;51.020;7.772;2022-10-28T08:42:21;17.10;99.90
19665;DHT22;9980;51.020;7.772;2022-10-28T08:45:58;17.20;99.90
19665;DHT22;9980;51.020;7.772;2022-10-28T08:48:54;17.30;99.90
19665;DHT22;9980;51.020;7.772;2022-10-28T08:51:44;17.50;99.90
19665;DHT22;9980;51.020;7.772;2022-10-28T08:55:16;17.50;99.90
19665;DHT22;9980;51.020;7.772;2022-10-28T09:01:23;17.80;99.90
19665;DHT22;9980;51.020;7.772;2022-10-28T09:04:43;17.90;99.90
19665;DHT22;9980;51.020;7.772;2022-10-28T09:07:39;17.90;99.90
19665;DHT22;9980;51.020;7.772;2022-10-28T09:10:16;18.10;99.90
19665;DHT22;9980;51.020;7.772;2022-10-28T09:16:17;18.20;99.90
19665;DHT22;9980;51.020;7.772;2022-10-28T09:19:56;18.30;99.90
19665;DHT22;9980;51.020;7.772;2022-10-28T09:22:53;18.40;99.90
19665;DHT22;9980;51.020;7.772;2022-10-28T09:32:38;18.70;99.90
19665;DHT22;9980;51.020;7.772;2022-10-28T09:35:25;18.80;99.90
19665;DHT22;9980;51.020;7.772;2022-10-28T09:38:32;18.90;99.90
19665;DHT22;9980;51.020;7.772;2022-10-28T09:41:26;18.90;99.90
19665;DHT22;9980;51.020;7.772;2022-10-28T09:47:18;19.10;99.90
19665;DHT22;9980;51.020;7.772;2022-10-28T09:50:19;19.20;99.90
19665;DHT22;9980;51.020;7.772;2022-10-28T09:53:24;19.30;99.90
19665;DHT22;9980;51.020;7.772;2022-10-28T09:56:26;19.40;99.90
19665;DHT22;9980;51.020;7.772;2022-10-28T09:59:12;19.60;99.90
19665;DHT22;9980;51.020;7.772;2022-10-28T10:02:02;19.70;99.90
19665;DHT22;9980;51.020;7.772;2022-10-28T10:04:43;19.80;99.90
19665;DHT22;9980;51.020;7.772;2022-10-28T10:07:48;19.90;99.90
19665;DHT22;9980;51.020;7.772;2022-10-28T10:10:34;20.00;99.90
19665;DHT22;9980;51.020;7.772;2022-10-28T10:13:35;20.20;99.90
19665;DHT22;9980;51.020;7.772;2022-10-28T10:16:32;20.30;99.90
19665;DHT22;9980;51.020;7.772;2022-10-28T10:22:45;20.60;99.90
19665;DHT22;9980;51.020;7.772;2022-10-28T10:25:33;20.70;99.90
19665;DHT22;9980;51.020;7.772;2022-10-28T10:28:14;20.80;99.90
19665;DHT22;9980;51.020;7.772;2022-10-28T10:31:04;21.00;99.90
19665;DHT22;9980;51.020;7.772;2022-10-28T10:33:52;21.20;99.90
19665;DHT22;9980;51.020;7.772;2022-10-28T10:36:48;21.30;99.90
19665;DHT22;9980;51.020;7.772;2022-10-28T10:39:35;21.50;99.90
19665;DHT22;9980;51.020;7.772;2022-10-28T10:42:23;21.60;99.90
19665;DHT22;9980;51.020;7.772;2022-10-28T10:48:13;21.90;99.30
19665;DHT22;9980;51.020;7.772;2022-10-28T10:50:48;22.00;98.80
19665;DHT22;9980;51.020;7.772;2022-10-28T10:53:48;22.20;99.00
19665;DHT22;9980;51.020;7.772;2022-10-28T10:56:28;22.30;98.50
19665;DHT22;9980;51.020;7.772;2022-10-28T10:59:27;22.40;98.40
19665;DHT22;9980;51.020;7.772;2022-10-28T11:02:03;22.60;98.40
19665;DHT22;9980;51.020;7.772;2022-10-28T11:05:21;22.70;98.20
19665;DHT22;9980;51.020;7.772;2022-10-28T11:08:34;22.80;98.00
19665;DHT22;9980;51.020;7.772;2022-10-28T11:11:36;23.00;97.60
19665;DHT22;9980;51.020;7.772;2022-10-28T11:14:19;23.10;97.10
19665;DHT22;9980;51.020;7.772;2022-10-28T11:17:23;23.20;97.10
19665;DHT22;9980;51.020;7.772;2022-10-28T11:20:25;23.30;96.70
19665;DHT22;9980;51.020;7.772;2022-10-28T11:23:19;23.40;96.70
19665;DHT22;9980;51.020;7.772;2022-10-28T11:26:09;23.60;96.80
19665;DHT22;9980;51.020;7.772;2022-10-28T11:29:16;23.60;96.00
19665;DHT22;9980;51.020;7.772;2022-10-28T11:32:43;23.80;96.30
19665;DHT22;9980;51.020;7.772;2022-10-28T11:35:58;23.80;95.50
19665;DHT22;9980;51.020;7.772;2022-10-28T11:39:19;23.90;95.50
19665;DHT22;9980;51.020;7.772;2022-10-28T11:42:19;23.90;95.40
19665;DHT22;9980;51.020;7.772;2022-10-28T11:45:28;24.00;95.70
19665;DHT22;9980;51.020;7.772;2022-10-28T11:51:54;24.10;95.00
19665;DHT22;9980;51.020;7.772;2022-10-28T12:01:43;24.30;94.60
19665;DHT22;9980;51.020;7.772;2022-10-28T12:05:11;24.40;94.60
19665;DHT22;9980;51.020;7.772;2022-10-28T12:17:40;24.70;94.10
19665;DHT22;9980;51.020;7.772;2022-10-28T12:23:40;24.80;94.00
19665;DHT22;9980;51.020;7.772;2022-10-28T12:26:17;24.90;93.60
19665;DHT22;9980;51.020;7.772;2022-10-28T12:29:20;25.00;93.60
19665;DHT22;9980;51.020;7.772;2022-10-28T12:32:13;25.00;93.00
19665;DHT22;9980;51.020;7.772;2022-10-28T12:35:24;25.10;93.40
19665;DHT22;9980;51.020;7.772;2022-10-28T12:42:38;25.10;93.10
19665;DHT22;9980;51.020;7.772;2022-10-28T12:44:49;25.10;93.40
19665;DHT22;9980;51.020;7.772;2022-10-28T12:54:20;25.30;92.90
19665;DHT22;9980;51.020;7.772;2022-10-28T12:57:13;25.40;92.10
19665;DHT22;9980;51.020;7.772;2022-10-28T13:03:09;25.40;91.90
19665;DHT22;9980;51.020;7.772;2022-10-28T13:09:39;25.40;92.30
19665;DHT22;9980;51.020;7.772;2022-10-28T13:16:04;25.40;91.40
19665;DHT22;9980;51.020;7.772;2022-10-28T13:29:01;25.50;91.00
19665;DHT22;9980;51.020;7.772;2022-10-28T13:31:52;25.50;91.30
19665;DHT22;9980;51.020;7.772;2022-10-28T13:34:38;25.50;91.10
19665;DHT22;9980;51.020;7.772;2022-10-28T13:37:32;25.50;90.70
19665;DHT22;9980;51.020;7.772;2022-10-28T13:47:00;25.40;91.30
19665;DHT22;9980;51.020;7.772;2022-10-28T14:02:19;25.30;90.40
19665;DHT22;9980;51.020;7.772;2022-10-28T14:05:13;25.20;90.80
19665;DHT22;9980;51.020;7.772;2022-10-28T14:08:27;25.20;90.80
19665;DHT22;9980;51.020;7.772;2022-10-28T14:11:22;25.20;90.80
19665;DHT22;9980;51.020;7.772;2022-10-28T14:14:13;25.20;90.90
19665;DHT22;9980;51.020;7.772;2022-10-28T14:16:48;25.10;90.80
19665;DHT22;9980;51.020;7.772;2022-10-28T14:19:48;25.10;90.80
19665;DHT22;9980;51.020;7.772;2022-10-28T14:22:33;25.10;90.90
19665;DHT22;9980;51.020;7.772;2022-10-28T14:36:56;24.90;91.10
19665;DHT22;9980;51.020;7.772;2022-10-28T14:40:18;24.90;90.60
19665;DHT22;9980;51.020;7.772;2022-10-28T14:46:57;24.80;91.10
19665;DHT22;9980;51.020;7.772;2022-10-28T14:50:22;24.80;91.20
19665;DHT22;9980;51.020;7.772;2022-10-28T14:53:34;24.70;91.00
19665;DHT22;9980;51.020;7.772;2022-10-28T14:56:30;24.70;90.90
19665;DHT22;9980;51.020;7.772;2022-10-28T14:59:32;24.70;90.70
19665;DHT22;9980;51.020;7.772;2022-10-28T15:02:16;24.60;91.00
19665;DHT22;9980;51.020;7.772;2022-10-28T15:05:21;24.60;91.50
19665;DHT22;9980;51.020;7.772;2022-10-28T15:08:09;24.50;91.40
19665;DHT22;9980;51.020;7.772;2022-10-28T15:10:56;24.50;91.60
19665;DHT22;9980;51.020;7.772;2022-10-28T15:13:36;24.40;91.50
19665;DHT22;9980;51.020;7.772;2022-10-28T15:16:24;24.40;91.70
19665;DHT22;9980;51.020;7.772;2022-10-28T15:19:05;24.30;91.50
19665;DHT22;9980;51.020;7.772;2022-10-28T15:22:05;24.20;91.50
19665;DHT22;9980;51.020;7.772;2022-10-28T15:28:03;24.10;91.70
19665;DHT22;9980;51.020;7.772;2022-10-28T15:30:43;24.00;91.80
19665;DHT22;9980;51.020;7.772;2022-10-28T15:33:39;24.00;91.70
19665;DHT22;9980;51.020;7.772;2022-10-28T15:36:23;23.90;91.70
19665;DHT22;9980;51.020;7.772;2022-10-28T15:39:18;23.90;91.80
19665;DHT22;9980;51.020;7.772;2022-10-28T15:41:58;23.80;91.90
19665;DHT22;9980;51.020;7.772;2022-10-28T15:44:46;23.80;92.00
19665;DHT22;9980;51.020;7.772;2022-10-28T15:47:36;23.70;91.90
19665;DHT22;9980;51.020;7.772;2022-10-28T15:50:26;23.60;92.20
19665;DHT22;9980;51.020;7.772;2022-10-28T15:56:27;23.50;92.40
19665;DHT22;9980;51.020;7.772;2022-10-28T15:59:20;23.40;92.30
19665;DHT22;9980;51.020;7.772;2022-10-28T16:02:38;23.30;92.30
19665;DHT22;9980;51.020;7.772;2022-10-28T16:08:29;23.10;92.30
19665;DHT22;9980;51.020;7.772;2022-10-28T16:11:05;23.00;92.40
19665;DHT22;9980;51.020;7.772;2022-10-28T16:20:11;22.80;92.90
19665;DHT22;9980;51.020;7.772;2022-10-28T16:22:53;22.70;93.00
19665;DHT22;9980;51.020;7.772;2022-10-28T16:25:40;22.60;92.80
19665;DHT22;9980;51.020;7.772;2022-10-28T16:28:25;22.50;92.90
19665;DHT22;9980;51.020;7.772;2022-10-28T16:31:16;22.40;93.10
19665;DHT22;9980;51.020;7.772;2022-10-28T16:33:58;22.30;93.10
19665;DHT22;9980;51.020;7.772;2022-10-28T16:36:45;22.30;93.20
19665;DHT22;9980;51.020;7.772;2022-10-28T16:39:25;22.20;93.20
19665;DHT22;9980;51.020;7.772;2022-10-28T16:42:20;22.20;93.40
19665;DHT22;9980;51.020;7.772;2022-10-28T16:44:56;22.10;93.40
19665;DHT22;9980;51.020;7.772;2022-10-28T16:47:50;22.00;93.50
19665;DHT22;9980;51.020;7.772;2022-10-28T16:50:24;22.00;93.70
19665;DHT22;9980;51.020;7.772;2022-10-28T16:53:18;21.90;93.80
19665;DHT22;9980;51.020;7.772;2022-10-28T16:55:52;21.90;93.80
19665;DHT22;9980;51.020;7.772;2022-10-28T16:58:52;21.80;93.80
19665;DHT22;9980;51.020;7.772;2022-10-28T17:01:26;21.80;93.80
19665;DHT22;9980;51.020;7.772;2022-10-28T17:04:20;21.70;94.00
19665;DHT22;9980;51.020;7.772;2022-10-28T17:06:53;21.70;94.10
19665;DHT22;9980;51.020;7.772;2022-10-28T17:09:48;21.70;94.10
19665;DHT22;9980;51.020;7.772;2022-10-28T17:12:25;21.70;94.20
19665;DHT22;9980;51.020;7.772;2022-10-28T17:15:07;21.60;94.20
19665;DHT22;9980;51.020;7.772;2022-10-28T17:18:02;21.60;94.30
19665;DHT22;9980;51.020;7.772;2022-10-28T17:20:35;21.60;94.40
19665;DHT22;9980;51.020;7.772;2022-10-28T17:23:29;21.60;94.40
19665;DHT22;9980;51.020;7.772;2022-10-28T17:26:02;21.50;94.60
19665;DHT22;9980;51.020;7.772;2022-10-28T17:28:56;21.50;94.60
19665;DHT22;9980;51.020;7.772;2022-10-28T17:31:29;21.50;94.70
19665;DHT22;9980;51.020;7.772;2022-10-28T17:34:23;21.40;94.70
19665;DHT22;9980;51.020;7.772;2022-10-28T17:36:56;21.30;94.80
19665;DHT22;9980;51.020;7.772;2022-10-28T17:39:50;21.30;94.90
19665;DHT22;9980;51.020;7.772;2022-10-28T17:42:30;21.20;95.00
19665;DHT22;9980;51.020;7.772;2022-10-28T17:45:17;21.20;95.10
19665;DHT22;9980;51.020;7.772;2022-10-28T17:47:58;21.10;95.30
19665;DHT22;9980;51.020;7.772;2022-10-28T17:50:52;21.00;95.20
19665;DHT22;9980;51.020;7.772;2022-10-28T17:53:33;20.90;95.30
19665;DHT22;9980;51.020;7.772;2022-10-28T17:56:21;20.90;95.40
19665;DHT22;9980;51.020;7.772;2022-10-28T17:59:02;20.80;95.50
19665;DHT22;9980;51.020;7.772;2022-10-28T18:01:49;20.70;95.50
19665;DHT22;9980;51.020;7.772;2022-10-28T18:04:29;20.60;95.70
19665;DHT22;9980;51.020;7.772;2022-10-28T18:07:19;20.60;95.60
19665;DHT22;9980;51.020;7.772;2022-10-28T18:09:59;20.50;95.80
19665;DHT22;9980;51.020;7.772;2022-10-28T18:12:53;20.40;95.70
19665;DHT22;9980;51.020;7.772;2022-10-28T18:15:27;20.30;95.90
19665;DHT22;9980;51.020;7.772;2022-10-28T18:18:24;20.30;95.90
19665;DHT22;9980;51.020;7.772;2022-10-28T18:20:57;20.20;96.00
19665;DHT22;9980;51.020;7.772;2022-10-28T18:23:52;20.10;96.00
19665;DHT22;9980;51.020;7.772;2022-10-28T18:26:26;20.00;96.10
19665;DHT22;9980;51.020;7.772;2022-10-28T18:29:20;20.00;96.10
19665;DHT22;9980;51.020;7.772;2022-10-28T18:32:00;19.90;96.30
19665;DHT22;9980;51.020;7.772;2022-10-28T18:34:47;19.90;96.30
19665;DHT22;9980;51.020;7.772;2022-10-28T18:37:27;19.80;96.40
19665;DHT22;9980;51.020;7.772;2022-10-28T18:40:14;19.70;96.40
19665;DHT22;9980;51.020;7.772;2022-10-28T18:42:54;19.60;96.50
19665;DHT22;9980;51.020;7.772;2022-10-28T18:45:41;19.60;96.60
19665;DHT22;9980;51.020;7.772;2022-10-28T18:48:21;19.50;96.70
19665;DHT22;9980;51.020;7.772;2022-10-28T18:51:12;19.40;96.70
19665;DHT22;9980;51.020;7.772;2022-10-28T18:53:51;19.30;96.90
19665;DHT22;9980;51.020;7.772;2022-10-28T18:56:38;19.30;96.80
19665;DHT22;9980;51.020;7.772;2022-10-28T18:59:20;19.20;97.00
19665;DHT22;9980;51.020;7.772;2022-10-28T19:02:31;19.20;97.00
19665;DHT22;9980;51.020;7.772;2022-10-28T19:05:04;19.10;97.50
19665;DHT22;9980;51.020;7.772;2022-10-28T19:07:58;19.00;97.10
19665;DHT22;9980;51.020;7.772;2022-10-28T19:10:31;19.00;97.30
19665;DHT22;9980;51.020;7.772;2022-10-28T19:13:11;18.90;97.30
19665;DHT22;9980;51.020;7.772;2022-10-28T19:16:06;18.80;97.30
19665;DHT22;9980;51.020;7.772;2022-10-28T19:18:47;18.80;97.50
19665;DHT22;9980;51.020;7.772;2022-10-28T19:21:38;18.70;97.40
19665;DHT22;9980;51.020;7.772;2022-10-28T19:24:18;18.60;97.60
19665;DHT22;9980;51.020;7.772;2022-10-28T19:27:12;18.60;97.60
19665;DHT22;9980;51.020;7.772;2022-10-28T19:29:45;18.50;97.80
19665;DHT22;9980;51.020;7.772;2022-10-28T19:32:39;18.50;97.70
19665;DHT22;9980;51.020;7.772;2022-10-28T19:35:12;18.40;97.80
19665;DHT22;9980;51.020;7.772;2022-10-28T19:38:06;18.40;97.70
19665;DHT22;9980;51.020;7.772;2022-10-28T19:40:39;18.40;98.00
19665;DHT22;9980;51.020;7.772;2022-10-28T19:43:34;18.30;97.90
19665;DHT22;9980;51.020;7.772;2022-10-28T19:46:17;18.20;98.00
19665;DHT22;9980;51.020;7.772;2022-10-28T19:49:12;18.20;98.10
19665;DHT22;9980;51.020;7.772;2022-10-28T19:51:45;18.20;98.20
19665;DHT22;9980;51.020;7.772;2022-10-28T19:54:39;18.10;98.20
19665;DHT22;9980;51.020;7.772;2022-10-28T19:57:19;18.10;98.30
19665;DHT22;9980;51.020;7.772;2022-10-28T20:00:07;18.10;98.40
19665;DHT22;9980;51.020;7.772;2022-10-28T20:02:48;18.10;98.60
19665;DHT22;9980;51.020;7.772;2022-10-28T20:05:35;18.10;98.50
19665;DHT22;9980;51.020;7.772;2022-10-28T20:08:15;18.00;98.60
19665;DHT22;9980;51.020;7.772;2022-10-28T20:11:07;18.10;98.60
19665;DHT22;9980;51.020;7.772;2022-10-28T20:14:00;18.00;98.70
19665;DHT22;9980;51.020;7.772;2022-10-28T20:16:50;18.00;98.70
19665;DHT22;9980;51.020;7.772;2022-10-28T20:19:37;18.00;98.80
19665;DHT22;9980;51.020;7.772;2022-10-28T20:22:31;17.90;98.70
19665;DHT22;9980;51.020;7.772;2022-10-28T20:25:05;17.90;98.90
19665;DHT22;9980;51.020;7.772;2022-10-28T20:27:59;17.90;98.80
19665;DHT22;9980;51.020;7.772;2022-10-28T20:30:39;17.90;98.90
19665;DHT22;9980;51.020;7.772;2022-10-28T20:33:38;17.80;98.90